Impacts TAF Board
For situational awareness. Not to be used for flight planning purposes.
IDs:

KHBG - Hattiesburg/Chain Mu, MS, US

Issued at 1735 UTC 07 Dec 2021
Updated at 1859 UTC 07 Dec 2021
Potential Impact None Slight Moderate High
Time1853Z 07/19Z 07/20Z 07/21Z 07/22Z 07/23Z 08/00Z 08/01Z 08/02Z 08/03Z 08/04Z 08/05Z 08/06Z 08/07Z>>
Type OBS PRVL PRVL PRVL PRVL PRVL PRVL PRVL PRVL PRVL PRVL PRVL PRVL PRVL
VIS 10 >6 >6 >6 >6 >6 >6 >6 >6 >6 >6 >6 >6 >6
CIG 15 15 15 8 8 8 8 8 8 8 8 8 8 8
Cover OVC OVC OVC OVC OVC OVC OVC OVC OVC OVC OVC OVC OVC OVC
FltCat MVFR MVFR MVFR IFR IFR IFR IFR IFR IFR IFR IFR IFR IFR IFR
WX -- VCSH VCSH VCSH VCSH VCSH VCSH VCSH VCSH VCSH VCSH VCSH VCSH VCSH
WDir 80 60 60 50 50 50 50 50 50 50 50 50 50 50
WSpd 4 5 5 3 3 3 3 3 3 3 3 3 3 3
WGst -- -- -- -- -- -- -- -- -- -- -- -- -- --
WSHgt -- -- -- -- -- -- -- -- -- -- -- -- -- --
WSDir -- -- -- -- -- -- -- -- -- -- -- -- -- --
WSSpd -- -- -- -- -- -- -- -- -- -- -- -- -- --
Raw TAF
KHBG 071735Z 0718/0818 06005KT P6SM VCSH OVC015
  FM072100 05003KT P6SM VCSH OVC008
  FM081000 00000KT 4SM -SHRA OVC004
  FM081200 00000KT 3SM BR OVC005


Raw METAR
KHBG 071853Z AUTO 08004KT 10SM OVC015 12/06 A3006 RMK AO2 SLP178 T01170061
KHBG 071753Z AUTO 05004KT 10SM OVC015 11/06 A3010 RMK AO2 SLP191 T01110056 10111 20089 58016
KHBG 071653Z AUTO 11004KT 10SM OVC016 11/06 A3014 RMK AO2 SLP204 T01060056
KHBG 071553Z AUTO 04004KT 10SM OVC016 11/05 A3016 RMK AO2 SLP211 T01060050

METAR Board
Radar Display
Forecast Discussion
For situational awareness. Not to be used for flight planning purposes.